KORL/ORL METAR and TAF weather

Enter ICAO airport designator
Station Type Date Time Source
KORL METAR 2023/02/05 14:02 UTC NOAA

KORL 051402Z 03003KT 10SM SCT024 BKN029 BKN100 17/13 A3026 RMK AO2 T01670133


Station Type Date Time Source
KORL Decoded METAR 2023/02/05 14:02 UTC NOAA

ORLANDO EXECUTIVE AIRPORT, FL, United States (KORL) 28-33N 081-20W 37M
Feb 05, 2023 - 09:02 AM EST / 2023.02.05 1402 UTC
Wind: from the NNE (030 degrees) at 3 MPH (3 KT):0
Visibility: 10 mile(s):0
Sky conditions: mostly cloudy
Temperature: 62.1 F (16.7 C)
Dew Point: 55.9 F (13.3 C)
Relative Humidity: 80%
Pressure (altimeter): 30.26 in. Hg (1024 hPa)
ob: KORL 051402Z 03003KT 10SM SCT024 BKN029 BKN100 17/13 A3026 RMK AO2 T01670133
cycle: 14

Station Type Date Time Source
KORL TAF UTC NOAA

Error!

Example: see airport list